sensor_id;sensor_type;location;lat;lon;timestamp;pressure;altitude;pressure_sealevel;temperature;humidity
64158;BME280;50449;51.528;5.076;2023-03-01T00:01:04;103004.50;;;4.05;58.63
64158;BME280;50449;51.528;5.076;2023-03-01T00:03:30;103002.84;;;4.04;58.75
64158;BME280;50449;51.528;5.076;2023-03-01T00:05:58;103009.19;;;4.03;58.71
64158;BME280;50449;51.528;5.076;2023-03-01T00:08:24;103000.28;;;4.03;58.35
64158;BME280;50449;51.528;5.076;2023-03-01T00:13:44;103015.66;;;4.01;58.63
64158;BME280;50449;51.528;5.076;2023-03-01T00:16:13;103014.97;;;3.99;58.87
64158;BME280;50449;51.528;5.076;2023-03-01T00:18:39;103014.13;;;3.98;58.65
64158;BME280;50449;51.528;5.076;2023-03-01T00:21:04;103015.09;;;3.97;59.04
64158;BME280;50449;51.528;5.076;2023-03-01T00:23:31;103016.09;;;3.96;58.56
64158;BME280;50449;51.528;5.076;2023-03-01T00:25:56;103014.38;;;3.95;58.75
64158;BME280;50449;51.528;5.076;2023-03-01T00:28:22;103015.38;;;3.94;58.89
64158;BME280;50449;51.528;5.076;2023-03-01T00:30:47;103011.88;;;3.94;58.72
64158;BME280;50449;51.528;5.076;2023-03-01T00:33:13;103013.72;;;3.93;59.23
64158;BME280;50449;51.528;5.076;2023-03-01T00:35:38;103012.84;;;3.93;58.77
64158;BME280;50449;51.528;5.076;2023-03-01T00:38:04;103009.34;;;3.92;58.62
64158;BME280;50449;51.528;5.076;2023-03-01T00:40:32;103013.00;;;3.91;59.06
64158;BME280;50449;51.528;5.076;2023-03-01T00:42:59;103009.47;;;3.90;58.81
64158;BME280;50449;51.528;5.076;2023-03-01T00:45:25;103018.47;;;3.89;59.13
64158;BME280;50449;51.528;5.076;2023-03-01T00:47:51;103009.63;;;3.89;59.20
64158;BME280;50449;51.528;5.076;2023-03-01T00:50:17;103006.94;;;3.89;59.26
64158;BME280;50449;51.528;5.076;2023-03-01T00:52:44;103015.09;;;3.87;59.01
64158;BME280;50449;51.528;5.076;2023-03-01T00:55:10;103007.25;;;3.86;59.30
64158;BME280;50449;51.528;5.076;2023-03-01T00:57:36;103013.44;;;3.86;58.80
64158;BME280;50449;51.528;5.076;2023-03-01T01:00:03;103006.53;;;3.84;59.13
64158;BME280;50449;51.528;5.076;2023-03-01T01:02:29;103009.22;;;3.84;59.12
64158;BME280;50449;51.528;5.076;2023-03-01T01:04:56;102994.13;;;3.83;59.18
64158;BME280;50449;51.528;5.076;2023-03-01T01:07:22;102986.28;;;3.81;59.01
64158;BME280;50449;51.528;5.076;2023-03-01T01:09:49;102990.78;;;3.81;59.30
64158;BME280;50449;51.528;5.076;2023-03-01T01:12:14;102989.06;;;3.80;59.30
64158;BME280;50449;51.528;5.076;2023-03-01T01:14:39;102984.72;;;3.79;59.25
64158;BME280;50449;51.528;5.076;2023-03-01T01:17:05;102981.22;;;3.78;59.44
64158;BME280;50449;51.528;5.076;2023-03-01T01:19:31;102984.03;;;3.77;59.43
64158;BME280;50449;51.528;5.076;2023-03-01T01:21:56;102982.34;;;3.76;59.52
64158;BME280;50449;51.528;5.076;2023-03-01T01:24:22;102973.47;;;3.75;59.49
64158;BME280;50449;51.528;5.076;2023-03-01T01:26:47;102973.47;;;3.75;59.49
64158;BME280;50449;51.528;5.076;2023-03-01T01:29:12;102962.94;;;3.74;59.19
64158;BME280;50449;51.528;5.076;2023-03-01T01:31:40;102961.22;;;3.73;59.27
64158;BME280;50449;51.528;5.076;2023-03-01T01:34:08;102969.25;;;3.73;59.46
64158;BME280;50449;51.528;5.076;2023-03-01T01:36:34;102956.88;;;3.72;59.09
64158;BME280;50449;51.528;5.076;2023-03-01T01:39:00;102961.53;;;3.69;59.47
64158;BME280;50449;51.528;5.076;2023-03-01T01:41:28;102951.81;;;3.68;59.19
64158;BME280;50449;51.528;5.076;2023-03-01T01:46:39;102941.25;;;3.67;59.24
64158;BME280;50449;51.528;5.076;2023-03-01T01:49:11;102941.25;;;3.67;59.23
64158;BME280;50449;51.528;5.076;2023-03-01T01:51:40;102933.53;;;3.64;59.67
64158;BME280;50449;51.528;5.076;2023-03-01T01:54:16;102926.53;;;3.63;59.59
64158;BME280;50449;51.528;5.076;2023-03-01T01:56:48;102933.66;;;3.62;59.63
64158;BME280;50449;51.528;5.076;2023-03-01T01:59:15;102930.16;;;3.62;59.70
64158;BME280;50449;51.528;5.076;2023-03-01T02:01:41;102922.16;;;3.62;59.45
64158;BME280;50449;51.528;5.076;2023-03-01T02:04:07;102925.09;;;3.59;59.69
64158;BME280;50449;51.528;5.076;2023-03-01T02:06:49;102927.78;;;3.59;59.42
64158;BME280;50449;51.528;5.076;2023-03-01T02:09:18;102924.28;;;3.58;59.62
64158;BME280;50449;51.528;5.076;2023-03-01T02:11:44;102920.91;;;3.56;59.78
64158;BME280;50449;51.528;5.076;2023-03-01T02:14:09;102920.06;;;3.56;59.68
64158;BME280;50449;51.528;5.076;2023-03-01T02:16:35;102908.50;;;3.55;60.05
64158;BME280;50449;51.528;5.076;2023-03-01T02:19:00;102904.16;;;3.54;59.65
64158;BME280;50449;51.528;5.076;2023-03-01T02:21:37;102906.00;;;3.54;59.93
64158;BME280;50449;51.528;5.076;2023-03-01T02:26:46;102895.72;;;3.49;59.78
64158;BME280;50449;51.528;5.076;2023-03-01T02:29:13;102903.03;;;3.47;60.01
64158;BME280;50449;51.528;5.076;2023-03-01T02:31:38;102908.25;;;3.49;59.87
64158;BME280;50449;51.528;5.076;2023-03-01T02:34:09;102899.53;;;3.46;59.95
64158;BME280;50449;51.528;5.076;2023-03-01T02:36:40;102908.53;;;3.45;59.70
64158;BME280;50449;51.528;5.076;2023-03-01T02:39:08;102899.81;;;3.43;59.84
64158;BME280;50449;51.528;5.076;2023-03-01T02:41:41;102907.00;;;3.43;59.72
64158;BME280;50449;51.528;5.076;2023-03-01T02:44:08;102915.00;;;3.43;59.76
64158;BME280;50449;51.528;5.076;2023-03-01T02:46:43;102904.44;;;3.41;59.72
64158;BME280;50449;51.528;5.076;2023-03-01T02:49:38;102910.78;;;3.40;59.64
64158;BME280;50449;51.528;5.076;2023-03-01T02:52:30;102910.94;;;3.39;59.54
64158;BME280;50449;51.528;5.076;2023-03-01T02:55:03;102913.88;;;3.36;59.83
64158;BME280;50449;51.528;5.076;2023-03-01T02:57:32;102913.06;;;3.35;59.76
64158;BME280;50449;51.528;5.076;2023-03-01T03:00:03;102916.69;;;3.34;59.75
64158;BME280;50449;51.528;5.076;2023-03-01T03:02:32;102916.69;;;3.34;59.99
64158;BME280;50449;51.528;5.076;2023-03-01T03:05:17;102916.69;;;3.34;59.82
64158;BME280;50449;51.528;5.076;2023-03-01T03:07:45;102911.50;;;3.33;59.75
64158;BME280;50449;51.528;5.076;2023-03-01T03:12:41;102907.28;;;3.30;59.70
64158;BME280;50449;51.528;5.076;2023-03-01T03:15:08;102901.06;;;3.30;59.62
64158;BME280;50449;51.528;5.076;2023-03-01T03:17:39;102899.41;;;3.29;59.92
64158;BME280;50449;51.528;5.076;2023-03-01T03:20:06;102895.06;;;3.28;59.62
64158;BME280;50449;51.528;5.076;2023-03-01T03:22:41;102894.19;;;3.27;59.67
64158;BME280;50449;51.528;5.076;2023-03-01T03:25:07;102893.34;;;3.27;59.86
64158;BME280;50449;51.528;5.076;2023-03-01T03:27:41;102901.50;;;3.25;59.72
64158;BME280;50449;51.528;5.076;2023-03-01T03:30:10;102901.50;;;3.25;59.92
64158;BME280;50449;51.528;5.076;2023-03-01T03:32:38;102901.66;;;3.23;60.05
64158;BME280;50449;51.528;5.076;2023-03-01T03:35:06;102893.78;;;3.22;59.75
64158;BME280;50449;51.528;5.076;2023-03-01T03:37:43;102895.59;;;3.21;59.83
64158;BME280;50449;51.528;5.076;2023-03-01T03:40:29;102896.72;;;3.19;59.72
64158;BME280;50449;51.528;5.076;2023-03-01T03:42:55;102892.38;;;3.18;59.79
64158;BME280;50449;51.528;5.076;2023-03-01T03:45:20;102885.34;;;3.17;59.71
64158;BME280;50449;51.528;5.076;2023-03-01T03:47:46;102886.34;;;3.16;60.19
64158;BME280;50449;51.528;5.076;2023-03-01T03:50:13;102889.00;;;3.16;60.02
64158;BME280;50449;51.528;5.076;2023-03-01T03:52:40;102883.78;;;3.14;60.12
64158;BME280;50449;51.528;5.076;2023-03-01T03:55:07;102882.97;;;3.14;60.36
64158;BME280;50449;51.528;5.076;2023-03-01T03:57:40;102891.97;;;3.13;59.96
64158;BME280;50449;51.528;5.076;2023-03-01T04:00:11;102890.44;;;3.10;60.28
64158;BME280;50449;51.528;5.076;2023-03-01T04:02:40;102891.25;;;3.11;60.13
64158;BME280;50449;51.528;5.076;2023-03-01T04:05:07;102888.59;;;3.11;60.27
64158;BME280;50449;51.528;5.076;2023-03-01T04:07:34;102884.22;;;3.10;60.28
64158;BME280;50449;51.528;5.076;2023-03-01T04:09:59;102887.88;;;3.09;60.09
64158;BME280;50449;51.528;5.076;2023-03-01T04:12:25;102884.38;;;3.08;60.14
64158;BME280;50449;51.528;5.076;2023-03-01T04:14:50;102877.34;;;3.07;60.38
64158;BME280;50449;51.528;5.076;2023-03-01T04:17:15;102876.66;;;3.05;60.41
64158;BME280;50449;51.528;5.076;2023-03-01T04:19:41;102872.16;;;3.06;60.16
64158;BME280;50449;51.528;5.076;2023-03-01T04:22:09;102876.66;;;3.05;60.23
64158;BME280;50449;51.528;5.076;2023-03-01T04:24:36;102869.59;;;3.04;60.29
64158;BME280;50449;51.528;5.076;2023-03-01T04:27:02;102871.44;;;3.03;60.28
64158;BME280;50449;51.528;5.076;2023-03-01T04:29:28;102872.44;;;3.02;60.19
64158;BME280;50449;51.528;5.076;2023-03-01T04:31:53;102873.41;;;3.01;60.18
64158;BME280;50449;51.528;5.076;2023-03-01T04:34:19;102873.56;;;3.00;60.21
64158;BME280;50449;51.528;5.076;2023-03-01T04:36:44;102876.22;;;3.00;60.48
64158;BME280;50449;51.528;5.076;2023-03-01T04:39:10;102872.69;;;2.99;60.23
64158;BME280;50449;51.528;5.076;2023-03-01T04:41:39;102874.53;;;2.99;60.47
64158;BME280;50449;51.528;5.076;2023-03-01T04:44:05;102872.97;;;2.96;60.27
64158;BME280;50449;51.528;5.076;2023-03-01T04:46:31;102869.34;;;2.97;60.59
64158;BME280;50449;51.528;5.076;2023-03-01T04:48:56;102864.97;;;2.96;60.13
64158;BME280;50449;51.528;5.076;2023-03-01T04:51:22;102865.97;;;2.95;60.57
64158;BME280;50449;51.528;5.076;2023-03-01T04:53:47;102866.09;;;2.94;60.53
64158;BME280;50449;51.528;5.076;2023-03-01T04:56:13;102858.91;;;2.94;60.22
64158;BME280;50449;51.528;5.076;2023-03-01T04:58:39;102863.44;;;2.94;60.27
64158;BME280;50449;51.528;5.076;2023-03-01T05:01:09;102847.53;;;2.92;60.51
64158;BME280;50449;51.528;5.076;2023-03-01T05:03:41;102848.53;;;2.91;60.23
64158;BME280;50449;51.528;5.076;2023-03-01T05:06:06;102845.88;;;2.91;60.20
64158;BME280;50449;51.528;5.076;2023-03-01T05:08:32;102836.19;;;2.90;60.64
64158;BME280;50449;51.528;5.076;2023-03-01T05:10:59;102838.84;;;2.90;60.35
64158;BME280;50449;51.528;5.076;2023-03-01T05:13:25;102835.47;;;2.88;60.52
64158;BME280;50449;51.528;5.076;2023-03-01T05:15:55;102835.47;;;2.88;60.37
64158;BME280;50449;51.528;5.076;2023-03-01T05:18:22;102831.09;;;2.87;60.58
64158;BME280;50449;51.528;5.076;2023-03-01T05:20:51;102835.75;;;2.85;60.32
64158;BME280;50449;51.528;5.076;2023-03-01T05:23:17;102836.72;;;2.84;60.53
64158;BME280;50449;51.528;5.076;2023-03-01T05:25:44;102835.06;;;2.83;60.38
64158;BME280;50449;51.528;5.076;2023-03-01T05:28:11;102834.06;;;2.84;60.30
64158;BME280;50449;51.528;5.076;2023-03-01T05:30:36;102829.84;;;2.81;60.59
64158;BME280;50449;51.528;5.076;2023-03-01T05:33:04;102822.81;;;2.80;60.49
64158;BME280;50449;51.528;5.076;2023-03-01T05:35:32;102818.47;;;2.79;60.52
64158;BME280;50449;51.528;5.076;2023-03-01T05:37:58;102804.28;;;2.79;60.27
64158;BME280;50449;51.528;5.076;2023-03-01T05:40:23;102805.28;;;2.78;60.31
64158;BME280;50449;51.528;5.076;2023-03-01T05:42:54;102799.22;;;2.76;60.48
64158;BME280;50449;51.528;5.076;2023-03-01T05:45:21;102799.22;;;2.76;60.70
64158;BME280;50449;51.528;5.076;2023-03-01T05:47:48;102805.56;;;2.75;60.58
64158;BME280;50449;51.528;5.076;2023-03-01T05:50:23;102795.84;;;2.74;60.38
64158;BME280;50449;51.528;5.076;2023-03-01T05:53:14;102791.50;;;2.73;60.85
64158;BME280;50449;51.528;5.076;2023-03-01T05:55:41;102799.50;;;2.73;60.70
64158;BME280;50449;51.528;5.076;2023-03-01T05:58:09;102796.97;;;2.71;60.47
64158;BME280;50449;51.528;5.076;2023-03-01T06:00:35;102796.13;;;2.71;60.47
64158;BME280;50449;51.528;5.076;2023-03-01T06:03:01;102796.13;;;2.71;60.79
64158;BME280;50449;51.528;5.076;2023-03-01T06:05:27;102796.13;;;2.71;60.77
64158;BME280;50449;51.528;5.076;2023-03-01T06:07:53;102798.94;;;2.69;60.41
64158;BME280;50449;51.528;5.076;2023-03-01T06:10:20;102798.94;;;2.69;60.57
64158;BME280;50449;51.528;5.076;2023-03-01T06:12:46;102806.09;;;2.69;60.75
64158;BME280;50449;51.528;5.076;2023-03-01T06:15:13;102806.25;;;2.67;60.85
64158;BME280;50449;51.528;5.076;2023-03-01T06:17:40;102802.72;;;2.67;60.35
64158;BME280;50449;51.528;5.076;2023-03-01T06:22:36;102794.88;;;2.65;60.46
64158;BME280;50449;51.528;5.076;2023-03-01T06:25:02;102792.34;;;2.64;60.39
64158;BME280;50449;51.528;5.076;2023-03-01T06:27:27;102804.00;;;2.63;60.70
64158;BME280;50449;51.528;5.076;2023-03-01T06:29:53;102799.63;;;2.62;60.49
64158;BME280;50449;51.528;5.076;2023-03-01T06:32:19;102801.59;;;2.59;60.75
64158;BME280;50449;51.528;5.076;2023-03-01T06:34:44;102801.59;;;2.59;60.95
64158;BME280;50449;51.528;5.076;2023-03-01T06:37:10;102798.09;;;2.59;60.81
64158;BME280;50449;51.528;5.076;2023-03-01T06:39:35;102803.59;;;2.57;60.50
64158;BME280;50449;51.528;5.076;2023-03-01T06:42:01;102808.91;;;2.57;60.58
64158;BME280;50449;51.528;5.076;2023-03-01T06:44:26;102818.72;;;2.57;61.05
64158;BME280;50449;51.528;5.076;2023-03-01T06:46:52;102814.38;;;2.56;60.56
64158;BME280;50449;51.528;5.076;2023-03-01T06:49:17;102812.72;;;2.55;60.56
64158;BME280;50449;51.528;5.076;2023-03-01T06:51:44;102815.50;;;2.53;60.62
64158;BME280;50449;51.528;5.076;2023-03-01T06:54:10;102815.50;;;2.53;60.54
64158;BME280;50449;51.528;5.076;2023-03-01T06:56:35;102811.16;;;2.52;60.54
64158;BME280;50449;51.528;5.076;2023-03-01T06:59:01;102820.00;;;2.53;60.94
64158;BME280;50449;51.528;5.076;2023-03-01T07:01:27;102823.63;;;2.52;60.60
64158;BME280;50449;51.528;5.076;2023-03-01T07:03:53;102813.97;;;2.51;60.93
64158;BME280;50449;51.528;5.076;2023-03-01T07:06:18;102819.28;;;2.51;60.78
64158;BME280;50449;51.528;5.076;2023-03-01T07:08:44;102821.13;;;2.50;60.78
64158;BME280;50449;51.528;5.076;2023-03-01T07:11:09;102817.75;;;2.48;60.91
64158;BME280;50449;51.528;5.076;2023-03-01T07:13:35;102813.25;;;2.49;60.73
64158;BME280;50449;51.528;5.076;2023-03-01T07:16:01;102808.91;;;2.48;60.59
64158;BME280;50449;51.528;5.076;2023-03-01T07:18:26;102805.41;;;2.47;60.73
64158;BME280;50449;51.528;5.076;2023-03-01T07:20:52;102796.53;;;2.47;60.64
64158;BME280;50449;51.528;5.076;2023-03-01T07:23:17;102796.69;;;2.45;60.56
64158;BME280;50449;51.528;5.076;2023-03-01T07:25:43;102802.03;;;2.45;60.56
64158;BME280;50449;51.528;5.076;2023-03-01T07:28:08;102804.69;;;2.45;60.81
64158;BME280;50449;51.528;5.076;2023-03-01T07:30:34;102804.81;;;2.44;60.75
64158;BME280;50449;51.528;5.076;2023-03-01T07:32:59;102805.81;;;2.43;60.42
64158;BME280;50449;51.528;5.076;2023-03-01T07:35:26;102809.44;;;2.42;60.78
64158;BME280;50449;51.528;5.076;2023-03-01T07:37:52;102811.25;;;2.41;60.64
64158;BME280;50449;51.528;5.076;2023-03-01T07:40:17;102809.59;;;2.40;60.67
64158;BME280;50449;51.528;5.076;2023-03-01T07:42:43;102815.06;;;2.38;60.49
64158;BME280;50449;51.528;5.076;2023-03-01T07:45:09;102811.56;;;2.38;60.49
64158;BME280;50449;51.528;5.076;2023-03-01T07:47:35;102807.22;;;2.37;60.48
64158;BME280;50449;51.528;5.076;2023-03-01T07:50:00;102809.00;;;2.36;60.40
64158;BME280;50449;51.528;5.076;2023-03-01T07:52:27;102812.66;;;2.35;60.57
64158;BME280;50449;51.528;5.076;2023-03-01T07:54:52;102821.50;;;2.36;60.45
64158;BME280;50449;51.528;5.076;2023-03-01T07:57:18;102813.66;;;2.34;60.59
64158;BME280;50449;51.528;5.076;2023-03-01T07:59:43;102818.28;;;2.32;60.73
64158;BME280;50449;51.528;5.076;2023-03-01T08:02:10;102817.44;;;2.32;60.53
64158;BME280;50449;51.528;5.076;2023-03-01T08:04:36;102826.28;;;2.32;60.38
64158;BME280;50449;51.528;5.076;2023-03-01T08:07:01;102819.25;;;2.31;60.56
64158;BME280;50449;51.528;5.076;2023-03-01T08:09:29;102821.06;;;2.31;60.11
64158;BME280;50449;51.528;5.076;2023-03-01T08:11:56;102818.56;;;2.29;60.42
64158;BME280;50449;51.528;5.076;2023-03-01T08:14:21;102820.38;;;2.29;60.12
64158;BME280;50449;51.528;5.076;2023-03-01T08:16:49;102818.56;;;2.29;60.00
64158;BME280;50449;51.528;5.076;2023-03-01T08:19:14;102817.69;;;2.29;59.77
64158;BME280;50449;51.528;5.076;2023-03-01T08:21:40;102819.53;;;2.28;59.78
64158;BME280;50449;51.528;5.076;2023-03-01T08:24:06;102811.66;;;2.27;59.26
64158;BME280;50449;51.528;5.076;2023-03-01T08:26:33;102811.66;;;2.27;59.17
64158;BME280;50449;51.528;5.076;2023-03-01T08:29:00;102813.47;;;2.26;59.37
64158;BME280;50449;51.528;5.076;2023-03-01T08:33:55;102815.44;;;2.24;58.52
64158;BME280;50449;51.528;5.076;2023-03-01T08:36:26;102813.75;;;2.23;58.78
64158;BME280;50449;51.528;5.076;2023-03-01T08:38:52;102815.59;;;2.23;58.24
64158;BME280;50449;51.528;5.076;2023-03-01T08:41:18;102812.94;;;2.23;58.21
64158;BME280;50449;51.528;5.076;2023-03-01T08:43:43;102814.75;;;2.22;58.05
64158;BME280;50449;51.528;5.076;2023-03-01T08:46:10;102812.94;;;2.23;58.27
64158;BME280;50449;51.528;5.076;2023-03-01T08:48:35;102812.94;;;2.23;58.21
64158;BME280;50449;51.528;5.076;2023-03-01T08:51:17;102810.25;;;2.23;58.39
64158;BME280;50449;51.528;5.076;2023-03-01T08:53:43;102808.44;;;2.23;58.31
64158;BME280;50449;51.528;5.076;2023-03-01T08:56:09;102803.09;;;2.23;58.49
64158;BME280;50449;51.528;5.076;2023-03-01T08:58:35;102795.09;;;2.23;58.37
64158;BME280;50449;51.528;5.076;2023-03-01T09:01:06;102791.59;;;2.23;58.43
64158;BME280;50449;51.528;5.076;2023-03-01T09:03:32;102793.25;;;2.24;58.20
64158;BME280;50449;51.528;5.076;2023-03-01T09:06:01;102789.63;;;2.25;58.32
64158;BME280;50449;51.528;5.076;2023-03-01T09:08:27;102785.97;;;2.26;58.59
64158;BME280;50449;51.528;5.076;2023-03-01T09:10:53;102778.97;;;2.25;58.55
64158;BME280;50449;51.528;5.076;2023-03-01T09:13:18;102778.97;;;2.25;58.41
64158;BME280;50449;51.528;5.076;2023-03-01T09:15:43;102776.03;;;2.28;57.97
64158;BME280;50449;51.528;5.076;2023-03-01T09:18:09;102770.69;;;2.28;57.04
64158;BME280;50449;51.528;5.076;2023-03-01T09:20:34;102760.88;;;2.28;57.43
64158;BME280;50449;51.528;5.076;2023-03-01T09:23:00;102767.03;;;2.29;57.29
64158;BME280;50449;51.528;5.076;2023-03-01T09:25:25;102760.03;;;2.28;57.22
64158;BME280;50449;51.528;5.076;2023-03-01T09:27:52;102759.03;;;2.29;57.64
64158;BME280;50449;51.528;5.076;2023-03-01T09:30:17;102755.41;;;2.30;57.07
64158;BME280;50449;51.528;5.076;2023-03-01T09:32:43;102756.25;;;2.30;56.80
64158;BME280;50449;51.528;5.076;2023-03-01T09:35:10;102756.13;;;2.32;56.26
64158;BME280;50449;51.528;5.076;2023-03-01T09:37:36;102746.28;;;2.32;56.33
64158;BME280;50449;51.528;5.076;2023-03-01T09:40:16;102746.13;;;2.34;55.58
64158;BME280;50449;51.528;5.076;2023-03-01T09:45:32;102732.78;;;2.34;55.15
64158;BME280;50449;51.528;5.076;2023-03-01T09:48:00;102730.13;;;2.34;55.41
64158;BME280;50449;51.528;5.076;2023-03-01T09:50:29;102734.50;;;2.35;55.16
64158;BME280;50449;51.528;5.076;2023-03-01T09:53:00;102725.50;;;2.36;55.38
64158;BME280;50449;51.528;5.076;2023-03-01T10:00:48;102722.53;;;2.39;54.87
64158;BME280;50449;51.528;5.076;2023-03-01T10:03:21;102717.38;;;2.37;53.94
64158;BME280;50449;51.528;5.076;2023-03-01T10:08:59;102719.75;;;2.41;53.57
64158;BME280;50449;51.528;5.076;2023-03-01T10:11:31;102723.25;;;2.41;52.98
64158;BME280;50449;51.528;5.076;2023-03-01T10:16:52;102713.56;;;2.40;54.65
64158;BME280;50449;51.528;5.076;2023-03-01T10:19:39;102712.44;;;2.43;54.58
64158;BME280;50449;51.528;5.076;2023-03-01T10:22:16;102713.28;;;2.43;54.22
64158;BME280;50449;51.528;5.076;2023-03-01T10:24:44;102708.78;;;2.44;53.88
64158;BME280;50449;51.528;5.076;2023-03-01T10:30:11;102709.22;;;2.49;53.88
64158;BME280;50449;51.528;5.076;2023-03-01T10:32:41;102700.09;;;2.51;53.02
64158;BME280;50449;51.528;5.076;2023-03-01T10:38:03;102685.78;;;2.52;52.61
64158;BME280;50449;51.528;5.076;2023-03-01T10:40:29;102688.28;;;2.54;52.72
64158;BME280;50449;51.528;5.076;2023-03-01T10:42:58;102684.66;;;2.55;52.81
64158;BME280;50449;51.528;5.076;2023-03-01T10:48:21;102691.53;;;2.57;52.45
64158;BME280;50449;51.528;5.076;2023-03-01T10:53:36;102679.84;;;2.58;52.92
64158;BME280;50449;51.528;5.076;2023-03-01T10:56:12;102668.06;;;2.61;54.37
64158;BME280;50449;51.528;5.076;2023-03-01T10:59:00;102676.91;;;2.62;53.96
64158;BME280;50449;51.528;5.076;2023-03-01T11:01:32;102658.22;;;2.62;53.46
64158;BME280;50449;51.528;5.076;2023-03-01T11:06:37;102673.81;;;2.66;53.86
64158;BME280;50449;51.528;5.076;2023-03-01T11:09:21;102666.50;;;2.68;53.35
64158;BME280;50449;51.528;5.076;2023-03-01T11:11:52;102668.19;;;2.69;52.80
64158;BME280;50449;51.528;5.076;2023-03-01T11:14:21;102665.38;;;2.71;52.55
64158;BME280;50449;51.528;5.076;2023-03-01T11:16:49;102668.75;;;2.73;51.70
64158;BME280;50449;51.528;5.076;2023-03-01T11:19:23;102683.63;;;2.75;50.84
64158;BME280;50449;51.528;5.076;2023-03-01T11:22:18;102671.13;;;2.76;51.49
64158;BME280;50449;51.528;5.076;2023-03-01T11:24:53;102674.63;;;2.76;52.63
64158;BME280;50449;51.528;5.076;2023-03-01T11:32:48;102661.84;;;2.80;52.25
64158;BME280;50449;51.528;5.076;2023-03-01T11:35:27;102661.69;;;2.81;52.49
64158;BME280;50449;51.528;5.076;2023-03-01T11:38:16;102654.53;;;2.82;52.76
64158;BME280;50449;51.528;5.076;2023-03-01T11:40:51;102654.53;;;2.82;52.89
64158;BME280;50449;51.528;5.076;2023-03-01T11:43:31;102639.09;;;2.86;51.81
64158;BME280;50449;51.528;5.076;2023-03-01T11:55:16;102645.78;;;2.90;52.24
64158;BME280;50449;51.528;5.076;2023-03-01T12:01:03;102636.53;;;2.94;52.11
64158;BME280;50449;51.528;5.076;2023-03-01T12:15:02;102623.44;;;3.00;51.64
64158;BME280;50449;51.528;5.076;2023-03-01T12:20:40;102609.78;;;3.03;51.40
64158;BME280;50449;51.528;5.076;2023-03-01T12:25:58;102602.47;;;3.06;51.76
64158;BME280;50449;51.528;5.076;2023-03-01T12:31:34;102604.84;;;3.09;51.81
64158;BME280;50449;51.528;5.076;2023-03-01T12:34:30;102596.72;;;3.10;51.81
64158;BME280;50449;51.528;5.076;2023-03-01T12:42:47;102588.38;;;3.13;52.54
64158;BME280;50449;51.528;5.076;2023-03-01T12:45:31;102592.59;;;3.16;52.75
64158;BME280;50449;51.528;5.076;2023-03-01T12:50:51;102565.84;;;3.25;53.18
64158;BME280;50449;51.528;5.076;2023-03-01T12:53:23;102576.22;;;3.29;53.01
64158;BME280;50449;51.528;5.076;2023-03-01T12:55:50;102577.75;;;3.31;52.71
64158;BME280;50449;51.528;5.076;2023-03-01T13:00:55;102567.47;;;3.36;51.87
64158;BME280;50449;51.528;5.076;2023-03-01T13:10:58;102540.81;;;3.44;51.32
64158;BME280;50449;51.528;5.076;2023-03-01T13:13:27;102535.16;;;3.47;51.07
64158;BME280;50449;51.528;5.076;2023-03-01T13:15:53;102525.19;;;3.50;51.62
64158;BME280;50449;51.528;5.076;2023-03-01T13:20:49;102518.56;;;3.54;50.96
64158;BME280;50449;51.528;5.076;2023-03-01T13:26:03;102517.09;;;3.59;50.83
64158;BME280;50449;51.528;5.076;2023-03-01T13:34:00;102513.97;;;3.64;50.68
64158;BME280;50449;51.528;5.076;2023-03-01T13:44:35;102489.00;;;3.73;50.75
64158;BME280;50449;51.528;5.076;2023-03-01T13:49:46;102483.47;;;3.75;53.34
64158;BME280;50449;51.528;5.076;2023-03-01T13:55:00;102475.00;;;3.79;51.85
64158;BME280;50449;51.528;5.076;2023-03-01T13:57:36;102481.03;;;3.81;52.41
64158;BME280;50449;51.528;5.076;2023-03-01T14:00:05;102478.19;;;3.83;52.05
64158;BME280;50449;51.528;5.076;2023-03-01T14:02:31;102474.38;;;3.85;51.15
64158;BME280;50449;51.528;5.076;2023-03-01T14:05:00;102468.88;;;3.87;51.17
64158;BME280;50449;51.528;5.076;2023-03-01T14:07:27;102469.56;;;3.89;50.99
64158;BME280;50449;51.528;5.076;2023-03-01T14:10:03;102462.22;;;3.91;51.30
64158;BME280;50449;51.528;5.076;2023-03-01T14:15:02;102457.41;;;3.95;50.01
64158;BME280;50449;51.528;5.076;2023-03-01T14:17:38;102454.59;;;3.96;53.48
64158;BME280;50449;51.528;5.076;2023-03-01T14:20:26;102450.75;;;3.99;51.69
64158;BME280;50449;51.528;5.076;2023-03-01T14:22:55;102462.13;;;4.01;51.10
64158;BME280;50449;51.528;5.076;2023-03-01T14:25:27;102453.09;;;4.02;51.05
64158;BME280;50449;51.528;5.076;2023-03-01T14:30:37;102438.59;;;4.04;50.30
64158;BME280;50449;51.528;5.076;2023-03-01T14:33:06;102431.41;;;4.05;50.29
64158;BME280;50449;51.528;5.076;2023-03-01T14:35:42;102426.72;;;4.07;49.97
64158;BME280;50449;51.528;5.076;2023-03-01T14:38:21;102428.25;;;4.09;49.23
64158;BME280;50449;51.528;5.076;2023-03-01T14:40:48;102422.75;;;4.11;49.85
64158;BME280;50449;51.528;5.076;2023-03-01T14:43:20;102420.91;;;4.11;50.12
64158;BME280;50449;51.528;5.076;2023-03-01T14:45:50;102418.75;;;4.15;49.86
64158;BME280;50449;51.528;5.076;2023-03-01T14:48:16;102414.22;;;4.16;49.64
64158;BME280;50449;51.528;5.076;2023-03-01T14:50:42;102415.94;;;4.17;50.17
64158;BME280;50449;51.528;5.076;2023-03-01T14:53:35;102404.06;;;4.19;49.90
64158;BME280;50449;51.528;5.076;2023-03-01T14:56:01;102400.56;;;4.19;49.83
64158;BME280;50449;51.528;5.076;2023-03-01T14:58:28;102404.06;;;4.19;50.22
64158;BME280;50449;51.528;5.076;2023-03-01T15:00:56;102404.56;;;4.23;49.88
64158;BME280;50449;51.528;5.076;2023-03-01T15:03:31;102400.91;;;4.24;50.08
64158;BME280;50449;51.528;5.076;2023-03-01T15:05:59;102406.09;;;4.25;49.60
64158;BME280;50449;51.528;5.076;2023-03-01T15:08:26;102402.25;;;4.28;50.12
64158;BME280;50449;51.528;5.076;2023-03-01T15:13:38;102386.88;;;4.30;48.81
64158;BME280;50449;51.528;5.076;2023-03-01T15:16:10;102391.09;;;4.32;49.08
64158;BME280;50449;51.528;5.076;2023-03-01T15:18:37;102385.72;;;4.32;49.21
64158;BME280;50449;51.528;5.076;2023-03-01T15:21:24;102388.25;;;4.34;48.69